sensor_id;sensor_type;location;lat;lon;timestamp;pressure;altitude;pressure_sealevel;temperature;humidity
45357;BME280;31092;51.924;21.448;2023-02-20T00:00:55;100398.91;;;0.43;100.00
45357;BME280;31092;51.924;21.448;2023-02-20T00:03:21;100296.59;;;-0.15;100.00
45357;BME280;31092;51.924;21.448;2023-02-20T00:05:46;100349.91;;;0.21;100.00
45357;BME280;31092;51.924;21.448;2023-02-20T00:08:12;100350.28;;;0.30;100.00
45357;BME280;31092;51.924;21.448;2023-02-20T00:10:37;100328.81;;;0.20;100.00
45357;BME280;31092;51.924;21.448;2023-02-20T00:13:04;100319.25;;;0.17;100.00
45357;BME280;31092;51.924;21.448;2023-02-20T00:15:29;100358.72;;;0.49;100.00
45357;BME280;31092;51.924;21.448;2023-02-20T00:17:55;100366.69;;;0.49;100.00
45357;BME280;31092;51.924;21.448;2023-02-20T00:20:23;100362.63;;;0.43;100.00
45357;BME280;31092;51.924;21.448;2023-02-20T00:22:49;100266.09;;;-0.35;100.00
45357;BME280;31092;51.924;21.448;2023-02-20T00:25:19;100342.66;;;0.11;100.00
45357;BME280;31092;51.924;21.448;2023-02-20T00:27:45;100333.38;;;0.04;100.00
45357;BME280;31092;51.924;21.448;2023-02-20T00:30:19;100353.31;;;0.09;100.00
45357;BME280;31092;51.924;21.448;2023-02-20T00:32:46;100334.97;;;-0.08;100.00
45357;BME280;31092;51.924;21.448;2023-02-20T00:35:13;100346.88;;;-0.01;100.00
45357;BME280;31092;51.924;21.448;2023-02-20T00:37:39;100369.97;;;0.11;100.00
45357;BME280;31092;51.924;21.448;2023-02-20T00:40:05;100293.22;;;-0.32;100.00
45357;BME280;31092;51.924;21.448;2023-02-20T00:42:31;100221.69;;;-0.73;100.00
45357;BME280;31092;51.924;21.448;2023-02-20T00:44:56;100301.44;;;-0.22;100.00
45357;BME280;31092;51.924;21.448;2023-02-20T00:47:22;100217.06;;;-0.69;100.00
45357;BME280;31092;51.924;21.448;2023-02-20T00:49:47;100330.75;;;0.04;100.00
45357;BME280;31092;51.924;21.448;2023-02-20T00:52:14;100379.72;;;0.25;100.00
45357;BME280;31092;51.924;21.448;2023-02-20T00:54:40;100251.63;;;-0.44;100.00
45357;BME280;31092;51.924;21.448;2023-02-20T00:57:05;100231.13;;;-0.55;100.00
45357;BME280;31092;51.924;21.448;2023-02-20T00:59:31;100304.25;;;-0.11;100.00
45357;BME280;31092;51.924;21.448;2023-02-20T01:01:56;100326.19;;;0.06;100.00
45357;BME280;31092;51.924;21.448;2023-02-20T01:04:22;100340.28;;;0.06;100.00
45357;BME280;31092;51.924;21.448;2023-02-20T01:06:47;100357.63;;;0.24;100.00
45357;BME280;31092;51.924;21.448;2023-02-20T01:09:13;100329.59;;;0.08;100.00
45357;BME280;31092;51.924;21.448;2023-02-20T01:11:41;100238.22;;;-0.41;100.00
45357;BME280;31092;51.924;21.448;2023-02-20T01:14:06;100321.84;;;0.05;100.00
45357;BME280;31092;51.924;21.448;2023-02-20T01:16:32;100370.50;;;0.31;100.00
45357;BME280;31092;51.924;21.448;2023-02-20T01:18:57;100327.59;;;0.11;100.00
45357;BME280;31092;51.924;21.448;2023-02-20T01:21:23;100317.56;;;0.16;100.00
45357;BME280;31092;51.924;21.448;2023-02-20T01:23:48;100281.47;;;0.01;100.00
45357;BME280;31092;51.924;21.448;2023-02-20T01:26:14;100307.63;;;0.20;100.00
45357;BME280;31092;51.924;21.448;2023-02-20T01:28:46;100237.63;;;-0.17;100.00
45357;BME280;31092;51.924;21.448;2023-02-20T01:31:14;100311.38;;;0.30;100.00
45357;BME280;31092;51.924;21.448;2023-02-20T01:33:41;100333.50;;;0.43;100.00
45357;BME280;31092;51.924;21.448;2023-02-20T01:36:08;100324.00;;;0.54;100.00
45357;BME280;31092;51.924;21.448;2023-02-20T01:38:34;100232.84;;;0.02;100.00
45357;BME280;31092;51.924;21.448;2023-02-20T01:40:59;100257.28;;;0.20;100.00
45357;BME280;31092;51.924;21.448;2023-02-20T01:43:25;100227.75;;;-0.01;100.00
45357;BME280;31092;51.924;21.448;2023-02-20T01:45:51;100226.34;;;-0.07;100.00
45357;BME280;31092;51.924;21.448;2023-02-20T01:48:22;100237.75;;;0.08;100.00
45357;BME280;31092;51.924;21.448;2023-02-20T01:50:50;100270.03;;;0.28;100.00
45357;BME280;31092;51.924;21.448;2023-02-20T01:53:19;100227.47;;;0.04;100.00
45357;BME280;31092;51.924;21.448;2023-02-20T01:55:50;100274.19;;;0.32;100.00
45357;BME280;31092;51.924;21.448;2023-02-20T01:58:18;100292.59;;;0.47;100.00
45357;BME280;31092;51.924;21.448;2023-02-20T02:00:45;100330.19;;;0.67;100.00
45357;BME280;31092;51.924;21.448;2023-02-20T02:03:13;100239.31;;;0.25;100.00
45357;BME280;31092;51.924;21.448;2023-02-20T02:05:43;100313.88;;;0.73;100.00
45357;BME280;31092;51.924;21.448;2023-02-20T02:08:10;100212.66;;;0.14;100.00
45357;BME280;31092;51.924;21.448;2023-02-20T02:11:10;100321.97;;;0.84;100.00
45357;BME280;31092;51.924;21.448;2023-02-20T02:13:37;100255.03;;;0.41;100.00
45357;BME280;31092;51.924;21.448;2023-02-20T02:30:28;100325.22;;;1.28;100.00
45357;BME280;31092;51.924;21.448;2023-02-20T02:39:01;100153.84;;;0.48;100.00
45357;BME280;31092;51.924;21.448;2023-02-20T02:52:09;100202.75;;;0.95;100.00
45357;BME280;31092;51.924;21.448;2023-02-20T02:57:40;100253.09;;;1.35;100.00
45357;BME280;31092;51.924;21.448;2023-02-20T03:00:14;100286.72;;;1.48;100.00
45357;BME280;31092;51.924;21.448;2023-02-20T03:02:49;100270.78;;;1.35;100.00
45357;BME280;31092;51.924;21.448;2023-02-20T03:05:18;100189.72;;;0.80;100.00
45357;BME280;31092;51.924;21.448;2023-02-20T03:07:50;100293.09;;;1.45;100.00
45357;BME280;31092;51.924;21.448;2023-02-20T03:10:20;100295.75;;;1.45;100.00
45357;BME280;31092;51.924;21.448;2023-02-20T03:13:00;100290.34;;;1.47;100.00
45357;BME280;31092;51.924;21.448;2023-02-20T03:15:50;100197.38;;;0.97;100.00
45357;BME280;31092;51.924;21.448;2023-02-20T03:18:38;100187.47;;;0.99;100.00
45357;BME280;31092;51.924;21.448;2023-02-20T03:21:12;100193.44;;;1.03;100.00
45357;BME280;31092;51.924;21.448;2023-02-20T03:23:40;100305.63;;;1.68;100.00
45357;BME280;31092;51.924;21.448;2023-02-20T03:26:12;100186.44;;;1.02;100.00
45357;BME280;31092;51.924;21.448;2023-02-20T03:31:51;100309.34;;;1.79;100.00
45357;BME280;31092;51.924;21.448;2023-02-20T03:34:38;100217.63;;;1.36;100.00
45357;BME280;31092;51.924;21.448;2023-02-20T03:37:25;100191.22;;;1.22;100.00
45357;BME280;31092;51.924;21.448;2023-02-20T03:40:13;100272.56;;;1.60;100.00
45357;BME280;31092;51.924;21.448;2023-02-20T03:43:02;100287.25;;;1.65;100.00
45357;BME280;31092;51.924;21.448;2023-02-20T03:45:47;100210.00;;;1.19;100.00
45357;BME280;31092;51.924;21.448;2023-02-20T03:48:25;100203.41;;;1.12;100.00
45357;BME280;31092;51.924;21.448;2023-02-20T03:50:52;100193.75;;;1.11;100.00
45357;BME280;31092;51.924;21.448;2023-02-20T03:53:37;100205.09;;;1.13;100.00
45357;BME280;31092;51.924;21.448;2023-02-20T03:56:08;100207.22;;;1.20;100.00
45357;BME280;31092;51.924;21.448;2023-02-20T03:58:37;100216.13;;;1.19;100.00
45357;BME280;31092;51.924;21.448;2023-02-20T04:01:07;100191.53;;;1.05;100.00
45357;BME280;31092;51.924;21.448;2023-02-20T04:03:37;100172.03;;;0.93;100.00
45357;BME280;31092;51.924;21.448;2023-02-20T04:06:06;100191.94;;;0.99;100.00
45357;BME280;31092;51.924;21.448;2023-02-20T04:08:37;100257.94;;;1.41;100.00
45357;BME280;31092;51.924;21.448;2023-02-20T04:11:12;100260.31;;;1.46;100.00
45357;BME280;31092;51.924;21.448;2023-02-20T04:13:39;100239.47;;;1.27;100.00
45357;BME280;31092;51.924;21.448;2023-02-20T04:16:06;100277.91;;;1.47;100.00
45357;BME280;31092;51.924;21.448;2023-02-20T04:18:32;100228.44;;;1.20;100.00
45357;BME280;31092;51.924;21.448;2023-02-20T04:21:01;100209.69;;;1.11;100.00
45357;BME280;31092;51.924;21.448;2023-02-20T04:23:31;100210.72;;;1.08;100.00
45357;BME280;31092;51.924;21.448;2023-02-20T04:26:01;100257.63;;;1.33;100.00
45357;BME280;31092;51.924;21.448;2023-02-20T04:28:29;100205.22;;;0.99;100.00
45357;BME280;31092;51.924;21.448;2023-02-20T04:30:55;100268.56;;;1.41;100.00
45357;BME280;31092;51.924;21.448;2023-02-20T04:33:21;100271.66;;;1.35;100.00
45357;BME280;31092;51.924;21.448;2023-02-20T04:35:47;100173.50;;;0.71;100.00
45357;BME280;31092;51.924;21.448;2023-02-20T04:38:12;100165.00;;;0.66;100.00
45357;BME280;31092;51.924;21.448;2023-02-20T04:40:38;100246.03;;;0.96;100.00
45357;BME280;31092;51.924;21.448;2023-02-20T04:43:04;100251.97;;;1.00;100.00
45357;BME280;31092;51.924;21.448;2023-02-20T04:45:29;100248.41;;;1.01;100.00
45357;BME280;31092;51.924;21.448;2023-02-20T04:47:55;100288.28;;;1.12;100.00
45357;BME280;31092;51.924;21.448;2023-02-20T04:50:29;100147.13;;;0.30;100.00
45357;BME280;31092;51.924;21.448;2023-02-20T04:52:55;100221.22;;;0.71;100.00
45357;BME280;31092;51.924;21.448;2023-02-20T04:55:22;100146.03;;;0.20;100.00
45357;BME280;31092;51.924;21.448;2023-02-20T04:57:48;100241.13;;;0.77;100.00
45357;BME280;31092;51.924;21.448;2023-02-20T05:00:16;100133.75;;;0.19;100.00
45357;BME280;31092;51.924;21.448;2023-02-20T05:02:42;100146.88;;;0.08;100.00
45357;BME280;31092;51.924;21.448;2023-02-20T05:05:20;100208.81;;;0.32;100.00
45357;BME280;31092;51.924;21.448;2023-02-20T05:07:46;100153.78;;;-0.04;100.00
45357;BME280;31092;51.924;21.448;2023-02-20T05:10:16;100273.72;;;0.52;100.00
45357;BME280;31092;51.924;21.448;2023-02-20T05:12:42;100171.41;;;-0.03;100.00
45357;BME280;31092;51.924;21.448;2023-02-20T05:15:08;100149.41;;;-0.18;100.00
45357;BME280;31092;51.924;21.448;2023-02-20T05:17:34;100154.59;;;-0.16;100.00
45357;BME280;31092;51.924;21.448;2023-02-20T05:20:00;100234.44;;;0.32;100.00
45357;BME280;31092;51.924;21.448;2023-02-20T05:22:25;100158.88;;;-0.14;100.00
45357;BME280;31092;51.924;21.448;2023-02-20T05:24:51;100129.47;;;-0.23;100.00
45357;BME280;31092;51.924;21.448;2023-02-20T05:27:18;100229.69;;;0.37;100.00
45357;BME280;31092;51.924;21.448;2023-02-20T05:29:49;100208.16;;;0.29;100.00
45357;BME280;31092;51.924;21.448;2023-02-20T05:32:16;100142.97;;;-0.14;100.00
45357;BME280;31092;51.924;21.448;2023-02-20T05:34:43;100243.28;;;0.45;100.00
45357;BME280;31092;51.924;21.448;2023-02-20T05:37:10;100154.31;;;-0.12;100.00
45357;BME280;31092;51.924;21.448;2023-02-20T05:39:36;100162.59;;;-0.04;100.00
45357;BME280;31092;51.924;21.448;2023-02-20T05:42:02;100244.88;;;0.47;100.00
45357;BME280;31092;51.924;21.448;2023-02-20T05:44:28;100145.63;;;-0.14;100.00
45357;BME280;31092;51.924;21.448;2023-02-20T05:46:53;100169.09;;;0.05;100.00
45357;BME280;31092;51.924;21.448;2023-02-20T05:49:20;100161.47;;;0.01;100.00
45357;BME280;31092;51.924;21.448;2023-02-20T05:51:45;100106.25;;;-0.33;100.00
45357;BME280;31092;51.924;21.448;2023-02-20T05:54:16;100186.63;;;0.20;100.00
45357;BME280;31092;51.924;21.448;2023-02-20T05:56:43;100167.44;;;0.17;100.00
45357;BME280;31092;51.924;21.448;2023-02-20T05:59:09;100100.91;;;-0.18;100.00
45357;BME280;31092;51.924;21.448;2023-02-20T06:01:35;100193.44;;;0.37;100.00
45357;BME280;31092;51.924;21.448;2023-02-20T06:04:00;100106.66;;;-0.12;100.00
45357;BME280;31092;51.924;21.448;2023-02-20T06:06:37;100114.72;;;-0.01;100.00
45357;BME280;31092;51.924;21.448;2023-02-20T06:09:05;100208.16;;;0.68;100.00
45357;BME280;31092;51.924;21.448;2023-02-20T06:11:38;100210.28;;;0.76;100.00
45357;BME280;31092;51.924;21.448;2023-02-20T06:14:05;100100.94;;;0.21;100.00
45357;BME280;31092;51.924;21.448;2023-02-20T06:16:33;100187.16;;;0.78;100.00
45357;BME280;31092;51.924;21.448;2023-02-20T06:18:59;100108.78;;;0.36;100.00
45357;BME280;31092;51.924;21.448;2023-02-20T06:21:25;100158.19;;;0.62;100.00
45357;BME280;31092;51.924;21.448;2023-02-20T06:23:52;100096.69;;;0.32;100.00
45357;BME280;31092;51.924;21.448;2023-02-20T06:26:19;100089.69;;;0.31;100.00
45357;BME280;31092;51.924;21.448;2023-02-20T06:28:45;100197.38;;;0.97;100.00
45357;BME280;31092;51.924;21.448;2023-02-20T06:31:22;100212.22;;;1.12;100.00
45357;BME280;31092;51.924;21.448;2023-02-20T06:33:48;100207.47;;;1.17;100.00
45357;BME280;31092;51.924;21.448;2023-02-20T06:36:23;100185.81;;;1.11;100.00
45357;BME280;31092;51.924;21.448;2023-02-20T06:38:50;100204.34;;;1.24;100.00
45357;BME280;31092;51.924;21.448;2023-02-20T06:41:15;100090.44;;;0.71;100.00
45357;BME280;31092;51.924;21.448;2023-02-20T06:43:41;100161.81;;;1.25;100.00
45357;BME280;31092;51.924;21.448;2023-02-20T06:46:06;100156.69;;;1.35;100.00
45357;BME280;31092;51.924;21.448;2023-02-20T06:48:32;100072.81;;;0.95;100.00
45357;BME280;31092;51.924;21.448;2023-02-20T06:50:57;100052.78;;;0.91;100.00
45357;BME280;31092;51.924;21.448;2023-02-20T06:53:23;100143.06;;;1.52;100.00
45357;BME280;31092;51.924;21.448;2023-02-20T06:55:48;100073.63;;;1.22;100.00
45357;BME280;31092;51.924;21.448;2023-02-20T06:58:14;100083.69;;;1.29;100.00
45357;BME280;31092;51.924;21.448;2023-02-20T07:00:39;100065.22;;;1.28;100.00
45357;BME280;31092;51.924;21.448;2023-02-20T07:03:05;100143.72;;;1.80;100.00
45357;BME280;31092;51.924;21.448;2023-02-20T07:05:30;100166.03;;;2.01;100.00
45357;BME280;31092;51.924;21.448;2023-02-20T07:07:56;100160.72;;;2.01;100.00
45357;BME280;31092;51.924;21.448;2023-02-20T07:10:21;100097.06;;;1.64;100.00
45357;BME280;31092;51.924;21.448;2023-02-20T07:12:47;100054.34;;;1.43;100.00
45357;BME280;31092;51.924;21.448;2023-02-20T07:15:12;100163.66;;;2.09;100.00
45357;BME280;31092;51.924;21.448;2023-02-20T07:17:38;100139.09;;;1.95;100.00
45357;BME280;31092;51.924;21.448;2023-02-20T07:20:04;100171.41;;;2.12;100.00
45357;BME280;31092;51.924;21.448;2023-02-20T07:22:30;100082.31;;;1.60;100.00
45357;BME280;31092;51.924;21.448;2023-02-20T07:24:56;100143.28;;;2.10;100.00
45357;BME280;31092;51.924;21.448;2023-02-20T07:27:22;100035.38;;;1.61;100.00
45357;BME280;31092;51.924;21.448;2023-02-20T07:29:48;100149.53;;;2.33;100.00
45357;BME280;31092;51.924;21.448;2023-02-20T07:32:15;100138.41;;;2.28;100.00
45357;BME280;31092;51.924;21.448;2023-02-20T07:34:45;100120.41;;;2.31;100.00
45357;BME280;31092;51.924;21.448;2023-02-20T07:37:11;100020.97;;;1.87;100.00
45357;BME280;31092;51.924;21.448;2023-02-20T07:39:37;100118.78;;;2.53;100.00
45357;BME280;31092;51.924;21.448;2023-02-20T07:42:03;100087.66;;;2.31;100.00
45357;BME280;31092;51.924;21.448;2023-02-20T07:44:28;100025.72;;;1.95;100.00
45357;BME280;31092;51.924;21.448;2023-02-20T07:46:54;100036.94;;;1.99;100.00
45357;BME280;31092;51.924;21.448;2023-02-20T07:49:19;100109.94;;;2.52;100.00
45357;BME280;31092;51.924;21.448;2023-02-20T07:51:45;100050.03;;;2.13;100.00
45357;BME280;31092;51.924;21.448;2023-02-20T07:54:10;100128.09;;;2.70;100.00
45357;BME280;31092;51.924;21.448;2023-02-20T07:56:36;100047.16;;;2.16;100.00
45357;BME280;31092;51.924;21.448;2023-02-20T07:59:01;100064.25;;;2.36;100.00
45357;BME280;31092;51.924;21.448;2023-02-20T08:01:27;100095.78;;;2.52;100.00
45357;BME280;31092;51.924;21.448;2023-02-20T08:03:53;100109.72;;;2.67;100.00
45357;BME280;31092;51.924;21.448;2023-02-20T08:06:19;100072.25;;;2.58;100.00
45357;BME280;31092;51.924;21.448;2023-02-20T08:08:48;100025.34;;;2.46;100.00
45357;BME280;31092;51.924;21.448;2023-02-20T08:11:15;100005.53;;;2.50;100.00
45357;BME280;31092;51.924;21.448;2023-02-20T08:13:42;99978.81;;;2.40;100.00
45357;BME280;31092;51.924;21.448;2023-02-20T08:16:09;100070.84;;;2.99;100.00
45357;BME280;31092;51.924;21.448;2023-02-20T08:18:34;100040.00;;;2.85;100.00
45357;BME280;31092;51.924;21.448;2023-02-20T08:21:00;100080.50;;;3.00;100.00
45357;BME280;31092;51.924;21.448;2023-02-20T08:23:26;100069.09;;;3.09;100.00
45357;BME280;31092;51.924;21.448;2023-02-20T08:25:52;100051.94;;;3.02;100.00
45357;BME280;31092;51.924;21.448;2023-02-20T08:28:18;100061.13;;;3.09;100.00
45357;BME280;31092;51.924;21.448;2023-02-20T08:30:43;100050.84;;;3.05;100.00
45357;BME280;31092;51.924;21.448;2023-02-20T08:33:09;99980.41;;;2.66;100.00
45357;BME280;31092;51.924;21.448;2023-02-20T08:35:35;99968.19;;;2.74;100.00
45357;BME280;31092;51.924;21.448;2023-02-20T08:38:04;99973.59;;;2.84;100.00
45357;BME280;31092;51.924;21.448;2023-02-20T08:40:31;99970.47;;;2.90;100.00
45357;BME280;31092;51.924;21.448;2023-02-20T08:42:56;99995.34;;;3.11;100.00
45357;BME280;31092;51.924;21.448;2023-02-20T08:45:22;100002.94;;;3.16;100.00
45357;BME280;31092;51.924;21.448;2023-02-20T08:47:48;100023.47;;;3.36;100.00
45357;BME280;31092;51.924;21.448;2023-02-20T08:50:15;99944.81;;;3.00;100.00
45357;BME280;31092;51.924;21.448;2023-02-20T08:52:42;100005.28;;;3.53;100.00
45357;BME280;31092;51.924;21.448;2023-02-20T08:55:08;99990.22;;;3.63;100.00
45357;BME280;31092;51.924;21.448;2023-02-20T08:57:34;99938.75;;;3.42;100.00
45357;BME280;31092;51.924;21.448;2023-02-20T08:59:59;99915.16;;;3.37;100.00
45357;BME280;31092;51.924;21.448;2023-02-20T09:02:25;99891.75;;;3.20;100.00
45357;BME280;31092;51.924;21.448;2023-02-20T09:04:54;99908.59;;;3.20;100.00
45357;BME280;31092;51.924;21.448;2023-02-20T09:07:19;99978.91;;;3.50;100.00
45357;BME280;31092;51.924;21.448;2023-02-20T09:09:45;99944.31;;;3.06;100.00
45357;BME280;31092;51.924;21.448;2023-02-20T09:12:10;99980.56;;;3.19;100.00
45357;BME280;31092;51.924;21.448;2023-02-20T09:14:36;99901.47;;;2.55;100.00
45357;BME280;31092;51.924;21.448;2023-02-20T09:17:02;99858.75;;;2.24;100.00
45357;BME280;31092;51.924;21.448;2023-02-20T09:19:29;99966.59;;;2.83;100.00
45357;BME280;31092;51.924;21.448;2023-02-20T09:21:55;99950.44;;;2.63;100.00
45357;BME280;31092;51.924;21.448;2023-02-20T09:24:20;99853.34;;;2.03;100.00
45357;BME280;31092;51.924;21.448;2023-02-20T09:26:46;99835.22;;;1.86;100.00
45357;BME280;31092;51.924;21.448;2023-02-20T09:29:11;99951.88;;;2.45;100.00
45357;BME280;31092;51.924;21.448;2023-02-20T09:31:37;99884.59;;;2.22;100.00
45357;BME280;31092;51.924;21.448;2023-02-20T09:34:02;99819.00;;;1.66;100.00
45357;BME280;31092;51.924;21.448;2023-02-20T09:36:28;99825.78;;;1.71;100.00
45357;BME280;31092;51.924;21.448;2023-02-20T09:38:54;99910.09;;;2.13;100.00
45357;BME280;31092;51.924;21.448;2023-02-20T09:44:20;99940.28;;;2.24;100.00
45357;BME280;31092;51.924;21.448;2023-02-20T09:46:51;99870.44;;;1.88;100.00
45357;BME280;31092;51.924;21.448;2023-02-20T09:49:29;99876.72;;;1.98;100.00
45357;BME280;31092;51.924;21.448;2023-02-20T09:52:04;99886.41;;;2.10;100.00
45357;BME280;31092;51.924;21.448;2023-02-20T09:54:38;99791.75;;;1.53;100.00
45357;BME280;31092;51.924;21.448;2023-02-20T09:57:09;99860.69;;;2.00;100.00
45357;BME280;31092;51.924;21.448;2023-02-20T09:59:40;99874.34;;;2.18;100.00
45357;BME280;31092;51.924;21.448;2023-02-20T10:02:26;99863.72;;;2.18;100.00
45357;BME280;31092;51.924;21.448;2023-02-20T10:04:57;99806.69;;;1.99;100.00
45357;BME280;31092;51.924;21.448;2023-02-20T10:07:31;99791.28;;;1.93;100.00
45357;BME280;31092;51.924;21.448;2023-02-20T10:09:59;99723.69;;;1.63;100.00
45357;BME280;31092;51.924;21.448;2023-02-20T10:12:33;99775.69;;;2.00;100.00
45357;BME280;31092;51.924;21.448;2023-02-20T10:15:18;99813.44;;;2.26;100.00
45357;BME280;31092;51.924;21.448;2023-02-20T10:26:09;99673.50;;;1.72;100.00
45357;BME280;31092;51.924;21.448;2023-02-20T10:28:38;99710.97;;;2.01;100.00
45357;BME280;31092;51.924;21.448;2023-02-20T10:34:04;99720.84;;;2.21;100.00
45357;BME280;31092;51.924;21.448;2023-02-20T10:36:44;99727.38;;;2.17;100.00
45357;BME280;31092;51.924;21.448;2023-02-20T10:39:12;99718.28;;;2.20;100.00
45357;BME280;31092;51.924;21.448;2023-02-20T10:42:09;99706.22;;;2.15;100.00
45357;BME280;31092;51.924;21.448;2023-02-20T10:44:44;99652.47;;;1.80;100.00
45357;BME280;31092;51.924;21.448;2023-02-20T10:50:00;99680.88;;;2.11;100.00
45357;BME280;31092;51.924;21.448;2023-02-20T10:52:36;99670.31;;;2.00;100.00
45357;BME280;31092;51.924;21.448;2023-02-20T10:55:20;99666.22;;;1.96;100.00
45357;BME280;31092;51.924;21.448;2023-02-20T11:00:19;99666.44;;;1.93;100.00
45357;BME280;31092;51.924;21.448;2023-02-20T11:02:51;99709.03;;;2.14;100.00
45357;BME280;31092;51.924;21.448;2023-02-20T11:05:23;99666.66;;;2.01;100.00
45357;BME280;31092;51.924;21.448;2023-02-20T11:07:49;99680.63;;;2.14;100.00
45357;BME280;31092;51.924;21.448;2023-02-20T11:10:15;99575.66;;;1.56;100.00
45357;BME280;31092;51.924;21.448;2023-02-20T11:12:45;99582.25;;;1.73;100.00
45357;BME280;31092;51.924;21.448;2023-02-20T11:15:15;99563.56;;;1.63;100.00
45357;BME280;31092;51.924;21.448;2023-02-20T11:17:43;99659.13;;;2.18;100.00
45357;BME280;31092;51.924;21.448;2023-02-20T11:23:03;99541.13;;;1.67;100.00
45357;BME280;31092;51.924;21.448;2023-02-20T11:25:36;99574.59;;;1.90;100.00
45357;BME280;31092;51.924;21.448;2023-02-20T11:30:38;99584.19;;;2.03;100.00
45357;BME280;31092;51.924;21.448;2023-02-20T11:33:18;99584.53;;;2.09;100.00
45357;BME280;31092;51.924;21.448;2023-02-20T11:35:52;99493.78;;;1.51;100.00
45357;BME280;31092;51.924;21.448;2023-02-20T11:38:25;99583.78;;;2.19;100.00
45357;BME280;31092;51.924;21.448;2023-02-20T11:43:41;99499.97;;;1.73;100.00
45357;BME280;31092;51.924;21.448;2023-02-20T11:46:11;99565.81;;;2.11;100.00
45357;BME280;31092;51.924;21.448;2023-02-20T11:48:57;99513.59;;;2.00;100.00
45357;BME280;31092;51.924;21.448;2023-02-20T11:51:40;99521.75;;;2.08;100.00
45357;BME280;31092;51.924;21.448;2023-02-20T11:59:41;99454.09;;;2.12;100.00
45357;BME280;31092;51.924;21.448;2023-02-20T12:05:02;99394.28;;;1.87;100.00
45357;BME280;31092;51.924;21.448;2023-02-20T12:12:38;99323.25;;;1.80;100.00
45357;BME280;31092;51.924;21.448;2023-02-20T12:15:11;99382.06;;;2.36;100.00
45357;BME280;31092;51.924;21.448;2023-02-20T12:17:51;99377.06;;;2.43;100.00
45357;BME280;31092;51.924;21.448;2023-02-20T12:20:24;99342.88;;;2.29;100.00
45357;BME280;31092;51.924;21.448;2023-02-20T12:31:21;99269.16;;;2.11;100.00
45357;BME280;31092;51.924;21.448;2023-02-20T12:34:17;99330.00;;;2.74;100.00
45357;BME280;31092;51.924;21.448;2023-02-20T12:39:46;99335.16;;;2.85;100.00
45357;BME280;31092;51.924;21.448;2023-02-20T12:42:56;99275.13;;;2.63;100.00
45357;BME280;31092;51.924;21.448;2023-02-20T12:45:46;99310.81;;;3.00;100.00
45357;BME280;31092;51.924;21.448;2023-02-20T12:53:29;99233.34;;;3.22;100.00
45357;BME280;31092;51.924;21.448;2023-02-20T12:56:19;99221.03;;;3.31;100.00
45357;BME280;31092;51.924;21.448;2023-02-20T13:01:19;99221.69;;;3.43;100.00
45357;BME280;31092;51.924;21.448;2023-02-20T13:06:33;99232.44;;;3.51;100.00
45357;BME280;31092;51.924;21.448;2023-02-20T13:11:32;99142.06;;;3.12;100.00
45357;BME280;31092;51.924;21.448;2023-02-20T13:19:38;99241.03;;;3.72;100.00
45357;BME280;31092;51.924;21.448;2023-02-20T13:22:04;99150.59;;;3.16;100.00
45357;BME280;31092;51.924;21.448;2023-02-20T13:24:38;99172.66;;;3.35;100.00
45357;BME280;31092;51.924;21.448;2023-02-20T13:27:05;99238.66;;;3.69;100.00
45357;BME280;31092;51.924;21.448;2023-02-20T13:29:37;99149.41;;;3.38;100.00
45357;BME280;31092;51.924;21.448;2023-02-20T13:32:27;99256.78;;;3.93;100.00
45357;BME280;31092;51.924;21.448;2023-02-20T13:34:54;99131.94;;;3.25;100.00
45357;BME280;31092;51.924;21.448;2023-02-20T13:45:45;99213.16;;;3.94;100.00
45357;BME280;31092;51.924;21.448;2023-02-20T13:53:58;99193.88;;;4.10;100.00
45357;BME280;31092;51.924;21.448;2023-02-20T13:56:44;99198.53;;;4.26;100.00
45357;BME280;31092;51.924;21.448;2023-02-20T13:59:16;99180.16;;;4.23;100.00
45357;BME280;31092;51.924;21.448;2023-02-20T14:02:13;99191.84;;;4.40;100.00
45357;BME280;31092;51.924;21.448;2023-02-20T14:04:52;99175.47;;;4.35;100.00
45357;BME280;31092;51.924;21.448;2023-02-20T14:07:27;99181.72;;;4.43;100.00
45357;BME280;31092;51.924;21.448;2023-02-20T14:10:04;99110.34;;;4.01;100.00
45357;BME280;31092;51.924;21.448;2023-02-20T14:12:30;99121.63;;;4.13;100.00
45357;BME280;31092;51.924;21.448;2023-02-20T14:14:57;99196.69;;;4.62;100.00
45357;BME280;31092;51.924;21.448;2023-02-20T14:17:23;99157.66;;;4.53;100.00
45357;BME280;31092;51.924;21.448;2023-02-20T14:19:55;99126.00;;;4.58;100.00
45357;BME280;31092;51.924;21.448;2023-02-20T14:22:32;99163.06;;;4.87;100.00
45357;BME280;31092;51.924;21.448;2023-02-20T14:27:38;99154.34;;;5.03;100.00
45357;BME280;31092;51.924;21.448;2023-02-20T14:32:49;99084.00;;;4.78;100.00
45357;BME280;31092;51.924;21.448;2023-02-20T14:41:35;99056.63;;;5.02;100.00
45357;BME280;31092;51.924;21.448;2023-02-20T14:44:03;99121.56;;;5.53;100.00
45357;BME280;31092;51.924;21.448;2023-02-20T14:46:34;99043.81;;;5.14;100.00
45357;BME280;31092;51.924;21.448;2023-02-20T14:49:08;99049.38;;;5.28;100.00
45357;BME280;31092;51.924;21.448;2023-02-20T14:51:34;99127.50;;;5.73;100.00
45357;BME280;31092;51.924;21.448;2023-02-20T14:54:09;99041.53;;;5.27;100.00
45357;BME280;31092;51.924;21.448;2023-02-20T14:56:40;99042.28;;;5.45;100.00
45357;BME280;31092;51.924;21.448;2023-02-20T14:59:19;99099.50;;;5.93;100.00
45357;BME280;31092;51.924;21.448;2023-02-20T15:01:46;99069.91;;;5.87;100.00
45357;BME280;31092;51.924;21.448;2023-02-20T15:04:15;99096.38;;;6.06;100.00
45357;BME280;31092;51.924;21.448;2023-02-20T15:06:44;99074.66;;;6.09;100.00
45357;BME280;31092;51.924;21.448;2023-02-20T15:09:10;99050.75;;;5.99;100.00